Airfield :
LOGIN :

Register | Disclaimer

   EN    FR    IT 

 










Legend :    VFR   Marginal VFR   IFR   Intensive IFR   Very Intensive IFR
Visi :
Ceiling :
>= 8 km
>= 3000ft
5 to 8 km
1000 to 3000 ft
1500m to 5 km
500 to 1000 ft
800 to 1500m
200 to 500 ft
< 800m
< 200 ft
Symbols :   Thunderstorms  Fog  Heavy snow  Heavy precipitations  Wind > 20 kt
SIGMETs :     Misc.  Thunderstorms  Icing  Turbulence  Mountain Waves  Volcanic Ashes






- Airport Elevation : 124 ft
- IATA code : RNS


LFRN - Rennes

CURRENT METAR :
  • 222130Z AUTO 24008KT CAVOK 04/03 Q1000 NOSIG

EXPIRED METARs :
  • 222100Z AUTO 22006KT CAVOK 04/02 Q1000 NOSIG
  • 222030Z AUTO 23006KT CAVOK 04/02 Q1000 NOSIG
  • 222000Z AUTO 23005KT CAVOK 05/03 Q1000 NOSIG
  • 221930Z AUTO 23005KT CAVOK 05/03 Q1000 NOSIG
  • 221900Z AUTO 24007KT CAVOK 05/03 Q1000 TEMPO 4000 SHRA BKN020CB

TAF TAF LFRN
Valid from the 22 at 18:00 until the 23 at 18:00 UTC


221700Z 2218/2318 24010KT 9999 SCT030
PROB40
TEMPO 2218/2220 4000 SHRA BKN020CB
BECMG 2300/2302 17010KT
TEMPO 2302/2309 3000 SHRAGS BKN020CB
PROB40
TEMPO 2302/2309 VRB15G30KT 2000 TSRAGS BKN008 BKN015CB
BECMG 2309/2311 32020G35KT
TEMPO 2309/2312 4000 SHRA BKN014TCU
BECMG 2312/2314 33012KT
BECMG 2316/2318 VRB03KT
ATIS : +33 2 99 67 72 50



MET'MAP, your aeronautical weather chart ! - Copyright ORBIFLY December 2007 - Disclaimer

ORBIFLY MET'MAP TEAM :

Programming & Development : Alexandra Zaïnal
Concept & original design : Baudouin d'Aumeries
Assistance for programming : Marc-Olivier Méhu
Technical & hardware support : Manuel Goepfert

Contact : metmap@orbifly.com




SOURCES & CREDITS :

   NOAA